Terminal Aerodrome Forecast
Issued by NWS

Home | Current Version | Previous Version | Text Only | Print | Product List | Glossary On
Versions: 1 2 3 4 5 6 7 8 9 10 11 12
261
FTUS45 KRIW 272330
TAFLND
TAF
KLND 272330Z 2800/2824 VRB05KT P6SM VCSH SCT040 BKN070
     FM280400 06006KT 6SM -RA BR SCT015 BKN025
     FM281000 VRB05KT 5SM -SNRA BR SCT008 BKN015
     FM281200 30006KT 2SM -SN SCT008 OVC012
     FM281800 34009KT P6SM -RASN BKN024
     FM282100 35011KT P6SM VCSH BKN035=

USA.gov is the U.S. government's official web portal to all federal, state and local government web resources and services.